LDRI/RJK METAR and TAF weather

Enter ICAO airport designator
Station Type Date Time Source
LDRI METAR 2021/09/23 18:00 UTC NOAA

LDRI 231800Z 11003KT CAVOK 17/10 Q1020


Station Type Date Time Source
LDRI Decoded METAR 2021/09/23 18:00 UTC NOAA

Rijeka / Omisalj, Croatia (LDRI) 45-13N 014-35E
Sep 23, 2021 - 02:00 PM EDT / 2021.09.23 1800 UTC
Wind: from the ESE (110 degrees) at 3 MPH (3 KT):0
Visibility: greater than 7 mile(s):0
Temperature: 62 F (17 C)
Dew Point: 50 F (10 C)
Relative Humidity: 63%
Pressure (altimeter): 30.12 in. Hg (1020 hPa)
ob: LDRI 231800Z 11003KT CAVOK 17/10 Q1020
cycle: 18

Station Type Date Time Source
LDRI TAF 2021/09/23 18:27 UTC NOAA

TAF LDRI 231725Z 2318/2418 VRB02KT CAVOK TX23/2413Z TN12/2403Z

Example: see airport list